Terminal Aerodrome Forecast
Issued by NWS

Home | Current Version | Previous Version | Text Only | Print | Product List | Glossary Off
Versions: 1 2 3 4 5 6 7 8 9 10 11 12 13 14 15 16 17

645
FTUS43 KABR 301734
TAFATY
TAF
KATY 301734Z 3018/0118 05016G25KT P6SM OVC200
     FM010400 03009KT P6SM FEW200=

USA.gov is the U.S. government's official web portal to all federal, state and local government web resources and services.